SUCCESS DAM (SCC)

Elevation: 692' · TULE R basin · Operator: US Army Corps of Engineers

Provisional data, subject to change.
Query executed Sunday at 1:49:11   clock

Select a sensor type for a plot of data.
Note: Reservoir Flows are daily averages.

Earlier

Date RES ELE    STORAGE    RES CHG    TOC STO    ABV TOC    OUTFLOW    INFLOW    FNF    PPT INC    PPTINC4    TEMP MN    TEMP MX    WINDLEN    EVP PAN   
 FEET   AF   AF   AF   AF   CFS   CFS   CFS   INCHES   INCHES   DEG F   DEG F   MILES   INCHES  
08/26/2016 591.41 8365 -173 82300 -73935 84 1 1 0.00 0.00 17 35 59 0.25
08/27/2016 591.04 8200 -165 82300 -74100 77 -2 0 e 0.00 0.00 16 34 64 0.25
08/28/2016 590.71 8054 -146 82300 -74246 72 2 0 e 0.01 0.00 17 35 63 0.25
08/29/2016 590.40 7919 -135 82300 -74381 66 1 1 0.00 0.00 20 37 55 0.25
08/30/2016 590.11 7794 -125 82300 -74506 61 2 2 0.04 0.00 19 36 66 0.25
08/31/2016 589.80 7662 -132 81313 -73651 62 -0 0 0.00 0.00 19 36 61 0.25
09/01/2016 589.52 7544 -118 80326 -72782 58 2 2 0.00 0.00 17 36 58 0.25
09/02/2016 589.24 7428 -116 79339 -71911 55 1 1 0.00 0.00 17 35 64 0.25
09/03/2016 589.13 7382 -46 78353 -70971 23 3 3 0.00 0.00 16 34 67 0.24
09/04/2016 589.07 7358 -24 77366 -70008 13 4 4 0.00 0.00 14 29 59 0.22
09/05/2016 588.91 7292 -66 76379 -69087 31 1 1 0.00 0.00 13 30 67 0.22
09/06/2016 588.74 7223 -69 75392 -68169 34 3 3 0.00 0.00 16 34 65 0.24
09/07/2016 588.55 7146 -77 74405 -67259 36 1 1 0.01 0.00 18 38 63 0.25
09/08/2016 588.39 7082 -64 73418 -66336 33 5 5 0.00 0.00 18 36 66 0.25
09/09/2016 588.21 7010 -72 72432 -65422 34 1 1 0.00 0.00 17 35 52 0.22
09/10/2016 588.08 6958 -52 71445 -64487 26 3 3 0.00 0.00 20 38 59 0.24
09/11/2016 587.97 6915 -43 70458 -63543 22 4 4 0.01 0.00 19 36 61 0.23
09/12/2016 587.86 6872 -43 69471 -62599 21 2 2 0.00 0.00 15 33 79 0.24
09/13/2016 587.74 6825 -47 68484 -61659 22 1 1 0.00 0.00 10 24 76 0.19
09/14/2016 587.61 6774 -51 67497 -60723 24 1 1 0.00 0.00 10 28 58 0.20
09/15/2016 587.49 6728 -46 66511 -59783 23 3 3 0.00 0.00 14 31 59 0.20
09/16/2016 587.35 6674 -54 65524 -58850 25 1 1 0.00 0.00 16 33 61 0.22
09/17/2016 587.25 6636 -38 64537 -57901 19 3 3 0.00 0.00 16 36 56 0.22
09/18/2016 587.17 6605 -31 63550 -56945 17 5 5 0.00 0.00 18 39 59 0.23
09/19/2016 587.05 6559 -46 62563 -56004 23 3 3 0.00 0.00 19 40 64 0.23
09/20/2016 586.90 6503 -56 61576 -55073 30 4 4 0.00 0.00 20 36 53 0.21
09/21/2016 586.72 6435 -68 60589 -54154 31 -0 0 0.00 0.00 19 34 61 0.20
09/22/2016 586.57 6379 -56 59603 -53224 30 4 -- 0.00 0.00 9 24 67 0.17
09/23/2016 586.41 6320 -59 58616 -52296 29 2 -- 0.00 0.00 10 28 58 0.18
09/24/2016 586.28 6272 -- 57629 -- 26 4 -- 0.00 0.00 13 31 62 0.20
09/25/2016 -- -- -- -- -- -- -- -- -- -- -- -- -- --

Later | Latest

Warning! This data is preliminary and subject to revision.

Show SCC Map | Plot SCC Data | 1 Month SCC Data | Real-Time SCC Data | SCC Info